createdAt,value
2023-04-23T00:00:13.470Z,8.65
2023-04-23T00:01:17.761Z,8.50
2023-04-23T00:02:22.918Z,8.23
2023-04-23T00:03:27.310Z,8.38
2023-04-23T00:04:34.337Z,8.63
2023-04-23T00:05:37.917Z,8.82
2023-04-23T00:06:41.929Z,8.65
2023-04-23T00:07:44.252Z,8.60
2023-04-23T00:08:47.917Z,9.20
2023-04-23T00:09:52.691Z,9.60
2023-04-23T00:10:55.036Z,8.90
2023-04-23T00:11:58.144Z,9.05
2023-04-23T00:13:00.475Z,9.27
2023-04-23T00:14:02.669Z,9.05
2023-04-23T00:15:07.007Z,9.23
2023-04-23T00:16:11.006Z,8.15
2023-04-23T00:17:13.138Z,8.82
2023-04-23T00:18:17.145Z,9.02
2023-04-23T00:19:19.428Z,8.97
2023-04-23T00:20:22.008Z,8.57
2023-04-23T00:21:24.054Z,8.60
2023-04-23T00:22:26.111Z,8.60
2023-04-23T00:23:29.397Z,9.38
2023-04-23T00:24:32.101Z,8.43
2023-04-23T00:25:34.226Z,8.75
2023-04-23T00:26:36.251Z,8.45
2023-04-23T00:27:38.320Z,8.77
2023-04-23T00:28:40.397Z,8.13
2023-04-23T00:29:43.410Z,8.93
2023-04-23T00:30:45.590Z,8.43
2023-04-23T00:31:47.626Z,8.10
2023-04-23T00:32:49.780Z,8.77
2023-04-23T00:33:51.956Z,9.10
2023-04-23T00:34:55.443Z,8.52
2023-04-23T00:35:57.450Z,9.05
2023-04-23T00:36:59.663Z,8.60
2023-04-23T00:38:01.807Z,8.63
2023-04-23T00:39:03.863Z,8.98
2023-04-23T00:40:07.757Z,9.20
2023-04-23T00:41:09.899Z,8.95
2023-04-23T00:42:12.716Z,8.35
2023-04-23T00:43:15.514Z,8.88
2023-04-23T00:44:17.934Z,8.80
2023-04-23T00:45:20.749Z,9.02
2023-04-23T00:46:22.693Z,8.85
2023-04-23T00:47:26.208Z,9.10
2023-04-23T00:48:29.360Z,8.93
2023-04-23T00:49:31.628Z,9.10
2023-04-23T00:50:33.760Z,9.80
2023-04-23T00:51:35.796Z,9.63
2023-04-23T00:52:39.188Z,9.60
2023-04-23T00:53:41.324Z,9.02
2023-04-23T00:54:43.538Z,9.35
2023-04-23T00:55:46.094Z,9.20
2023-04-23T00:56:49.289Z,9.15
2023-04-23T00:57:51.560Z,8.18
2023-04-23T00:58:54.158Z,8.48
2023-04-23T00:59:58.419Z,8.73
2023-04-23T01:01:03.440Z,9.00
2023-04-23T01:02:06.099Z,9.60
2023-04-23T01:03:08.803Z,8.88
2023-04-23T01:04:12.242Z,9.40
2023-04-23T01:05:15.955Z,9.25
2023-04-23T01:06:18.325Z,9.15
2023-04-23T01:07:21.375Z,9.10
2023-04-23T01:08:25.157Z,9.27
2023-04-23T01:09:27.892Z,9.25
2023-04-23T01:10:32.711Z,9.52
2023-04-23T01:11:35.008Z,9.33
2023-04-23T01:12:37.025Z,9.20
2023-04-23T01:13:39.078Z,10.70
2023-04-23T01:14:42.644Z,9.65
2023-04-23T01:15:45.528Z,9.43
2023-04-23T01:16:47.732Z,9.40
2023-04-23T01:17:49.934Z,9.68
2023-04-23T01:18:53.754Z,9.13
2023-04-23T01:19:55.997Z,9.82
2023-04-23T01:20:58.701Z,8.70
2023-04-23T01:22:01.611Z,9.27
2023-04-23T01:23:04.810Z,8.80
2023-04-23T01:24:07.416Z,7.95
2023-04-23T01:25:10.400Z,9.25
2023-04-23T01:26:12.427Z,8.52
2023-04-23T01:27:14.460Z,9.30
2023-04-23T01:28:17.056Z,10.60
2023-04-23T01:29:20.156Z,9.32
2023-04-23T01:30:22.412Z,9.25
2023-04-23T01:31:24.718Z,8.55
2023-04-23T01:32:26.995Z,8.67
2023-04-23T01:33:29.529Z,8.80
2023-04-23T01:34:33.545Z,9.02
2023-04-23T01:35:36.713Z,9.35
2023-04-23T01:36:39.201Z,8.50
2023-04-23T01:37:42.988Z,8.80
2023-04-23T01:38:45.379Z,9.95
2023-04-23T01:39:47.463Z,9.18
2023-04-23T01:40:49.519Z,9.45
2023-04-23T01:41:51.806Z,9.60
2023-04-23T01:42:54.510Z,9.07
2023-04-23T01:43:57.805Z,9.10
2023-04-23T01:45:00.247Z,10.25
2023-04-23T01:46:05.489Z,9.45
2023-04-23T01:47:07.554Z,9.32
2023-04-23T01:48:10.212Z,8.80
2023-04-23T01:49:12.556Z,8.95
2023-04-23T01:50:15.505Z,9.40
2023-04-23T01:51:17.772Z,8.95
2023-04-23T01:52:19.874Z,9.30
2023-04-23T01:53:21.872Z,9.17
2023-04-23T01:54:23.963Z,8.85
2023-04-23T01:55:26.253Z,9.80
2023-04-23T01:56:28.972Z,9.48
2023-04-23T01:57:31.256Z,9.30
2023-04-23T01:58:33.300Z,9.90
2023-04-23T01:59:35.714Z,9.25
2023-04-23T02:00:37.718Z,9.50
2023-04-23T02:01:47.081Z,9.00
2023-04-23T02:02:49.269Z,9.38
2023-04-23T02:03:51.781Z,9.60
2023-04-23T02:04:54.885Z,9.35
2023-04-23T02:05:57.706Z,8.88
2023-04-23T02:06:59.730Z,9.55
2023-04-23T02:08:02.867Z,9.95
2023-04-23T02:09:05.753Z,8.90
2023-04-23T02:10:08.729Z,9.15
2023-04-23T02:11:11.350Z,9.20
2023-04-23T02:12:13.295Z,8.50
2023-04-23T02:13:15.362Z,9.52
2023-04-23T02:14:17.722Z,8.87
2023-04-23T02:15:20.107Z,9.02
2023-04-23T02:16:24.591Z,8.98
2023-04-23T02:17:29.398Z,8.60
2023-04-23T02:18:31.762Z,8.75
2023-04-23T02:19:35.883Z,9.02
2023-04-23T02:20:40.790Z,8.57
2023-04-23T02:21:43.090Z,8.80
2023-04-23T02:22:46.097Z,8.52
2023-04-23T02:23:48.041Z,8.95
2023-04-23T02:24:50.958Z,9.17
2023-04-23T02:25:52.894Z,9.65
2023-04-23T02:26:54.950Z,9.25
2023-04-23T02:27:57.736Z,9.43
2023-04-23T02:28:59.747Z,9.18
2023-04-23T02:30:02.295Z,9.57
2023-04-23T02:31:04.842Z,9.60
2023-04-23T02:32:06.854Z,10.02
2023-04-23T02:33:08.839Z,9.90
2023-04-23T02:34:10.859Z,9.38
2023-04-23T02:35:13.425Z,9.17
2023-04-23T02:36:16.304Z,10.27
2023-04-23T02:37:18.351Z,9.52
2023-04-23T02:38:20.294Z,9.38
2023-04-23T02:39:22.480Z,9.80
2023-04-23T02:40:24.665Z,8.98
2023-04-23T02:41:26.797Z,8.80
2023-04-23T02:42:28.858Z,9.30
2023-04-23T02:43:30.851Z,9.07
2023-04-23T02:44:33.070Z,8.90
2023-04-23T02:45:35.403Z,8.73
2023-04-23T02:46:37.812Z,9.27
2023-04-23T02:47:40.044Z,9.10
2023-04-23T02:48:42.205Z,9.25
2023-04-23T02:49:47.113Z,9.93
2023-04-23T02:50:49.676Z,9.15
2023-04-23T02:51:51.783Z,9.10
2023-04-23T02:52:53.976Z,8.93
2023-04-23T02:53:55.983Z,9.40
2023-04-23T02:54:58.043Z,9.05
2023-04-23T02:56:00.193Z,9.10
2023-04-23T02:57:02.450Z,9.52
2023-04-23T02:58:04.607Z,9.15
2023-04-23T02:59:09.168Z,9.00
2023-04-23T03:00:12.602Z,9.27
2023-04-23T03:01:17.527Z,8.95
2023-04-23T03:02:19.720Z,9.07
2023-04-23T03:03:22.452Z,9.77
2023-04-23T03:04:24.765Z,9.50
2023-04-23T03:05:26.838Z,9.45
2023-04-23T03:06:29.311Z,9.00
2023-04-23T03:07:31.436Z,9.38
2023-04-23T03:08:33.819Z,9.02
2023-04-23T03:09:35.913Z,9.35
2023-04-23T03:10:37.951Z,9.40
2023-04-23T03:11:40.107Z,8.85
2023-04-23T03:12:42.721Z,9.15
2023-04-23T03:13:45.028Z,8.82
2023-04-23T03:14:47.525Z,9.70
2023-04-23T03:15:50.278Z,9.25
2023-04-23T03:16:53.037Z,9.23
2023-04-23T03:17:55.492Z,9.00
2023-04-23T03:18:58.618Z,8.98
2023-04-23T03:20:00.968Z,9.00
2023-04-23T03:21:03.173Z,9.18
2023-04-23T03:22:05.872Z,8.55
2023-04-23T03:23:07.991Z,9.13
2023-04-23T03:24:15.479Z,9.30
2023-04-23T03:25:17.702Z,8.60
2023-04-23T03:26:20.185Z,8.95
2023-04-23T03:27:22.236Z,9.23
2023-04-23T03:28:24.717Z,8.95
2023-04-23T03:29:26.978Z,9.23
2023-04-23T03:30:30.025Z,9.05
2023-04-23T03:31:32.361Z,8.77
2023-04-23T03:32:35.250Z,9.05
2023-04-23T03:33:37.409Z,9.40
2023-04-23T03:34:39.726Z,9.02
2023-04-23T03:35:42.116Z,9.32
2023-04-23T03:36:50.220Z,8.95
2023-04-23T03:37:53.256Z,9.03
2023-04-23T03:38:55.913Z,8.93
2023-04-23T03:39:58.214Z,9.20
2023-04-23T03:41:00.536Z,8.90
2023-04-23T03:42:02.952Z,8.95
2023-04-23T03:43:05.989Z,8.68
2023-04-23T03:44:26.609Z,8.57
2023-04-23T03:45:31.147Z,9.00
2023-04-23T03:46:33.308Z,9.48
2023-04-23T03:47:35.354Z,8.98
2023-04-23T03:48:37.543Z,8.53
2023-04-23T03:49:44.474Z,9.27
2023-04-23T03:50:46.574Z,9.18
2023-04-23T03:52:03.128Z,8.50
2023-04-23T03:53:08.124Z,8.68
2023-04-23T03:54:42.460Z,8.50
2023-04-23T03:55:54.307Z,8.60
2023-04-23T03:56:57.866Z,8.55
2023-04-23T03:58:03.952Z,8.63
2023-04-23T03:59:17.297Z,8.70
2023-04-23T04:00:20.796Z,8.77
2023-04-23T04:01:22.855Z,9.07
2023-04-23T04:02:27.082Z,9.07
2023-04-23T04:03:29.539Z,9.20
2023-04-23T04:04:32.871Z,8.68
2023-04-23T04:05:35.699Z,8.98
2023-04-23T04:06:37.864Z,9.25
2023-04-23T04:07:41.236Z,9.27
2023-04-23T04:08:43.268Z,9.73
2023-04-23T04:09:47.200Z,9.13
2023-04-23T04:10:49.184Z,8.80
2023-04-23T04:11:53.322Z,8.93
2023-04-23T04:12:55.567Z,9.13
2023-04-23T04:13:57.824Z,9.50
2023-04-23T04:14:59.931Z,9.48
2023-04-23T04:16:02.089Z,9.48
2023-04-23T04:17:07.017Z,9.40
2023-04-23T04:18:09.400Z,9.43
2023-04-23T04:19:11.844Z,8.98
2023-04-23T04:20:13.926Z,9.50
2023-04-23T04:21:17.324Z,9.60
2023-04-23T04:22:19.346Z,9.73
2023-04-23T04:23:21.751Z,9.00
2023-04-23T04:24:26.386Z,9.68
2023-04-23T04:25:29.826Z,9.70
2023-04-23T04:26:32.629Z,9.30
2023-04-23T04:27:35.025Z,8.75
2023-04-23T04:28:37.778Z,10.00
2023-04-23T04:29:40.983Z,9.38
2023-04-23T04:30:42.928Z,9.40
2023-04-23T04:31:45.103Z,9.97
2023-04-23T04:32:47.324Z,8.90
2023-04-23T04:33:49.462Z,9.63
2023-04-23T04:34:52.747Z,9.32
2023-04-23T04:35:56.594Z,9.00
2023-04-23T04:36:58.600Z,9.35
2023-04-23T04:38:00.714Z,9.43
2023-04-23T04:39:03.649Z,8.90
2023-04-23T04:40:07.570Z,9.07
2023-04-23T04:41:09.735Z,8.63
2023-04-23T04:42:13.221Z,9.70
2023-04-23T04:43:16.639Z,8.73
2023-04-23T04:44:18.841Z,9.20
2023-04-23T04:45:21.010Z,9.15
2023-04-23T04:46:23.048Z,9.15
2023-04-23T04:47:25.593Z,8.85
2023-04-23T04:48:27.720Z,9.45
2023-04-23T04:49:29.782Z,8.90
2023-04-23T04:50:31.944Z,9.30
2023-04-23T04:51:33.978Z,9.10
2023-04-23T04:52:36.546Z,8.67
2023-04-23T04:53:38.546Z,9.35
2023-04-23T04:54:41.934Z,9.65
2023-04-23T04:55:44.479Z,9.63
2023-04-23T04:56:46.716Z,9.10
2023-04-23T04:57:48.703Z,8.90
2023-04-23T04:58:50.784Z,9.50
2023-04-23T04:59:54.019Z,9.45
2023-04-23T05:00:56.360Z,9.20
2023-04-23T05:01:59.730Z,8.98
2023-04-23T05:03:02.353Z,8.90
2023-04-23T05:04:04.927Z,8.55
2023-04-23T05:05:07.755Z,9.32
2023-04-23T05:06:09.880Z,9.65
2023-04-23T05:07:11.870Z,8.77
2023-04-23T05:08:16.834Z,9.00
2023-04-23T05:09:18.874Z,8.43
2023-04-23T05:10:21.380Z,8.98
2023-04-23T05:11:23.489Z,8.85
2023-04-23T05:12:25.508Z,9.38
2023-04-23T05:13:27.604Z,8.77
2023-04-23T05:14:30.001Z,8.27
2023-04-23T05:15:32.025Z,9.02
2023-04-23T05:16:34.635Z,8.80
2023-04-23T05:17:37.590Z,8.30
2023-04-23T05:18:40.870Z,8.43
2023-04-23T05:19:42.910Z,8.70
2023-04-23T05:20:45.310Z,8.77
2023-04-23T05:21:47.302Z,9.07
2023-04-23T05:22:49.266Z,8.25
2023-04-23T05:23:51.219Z,8.47
2023-04-23T05:24:53.197Z,8.20
2023-04-23T05:25:57.102Z,7.50
2023-04-23T05:26:59.194Z,8.00
2023-04-23T05:28:01.590Z,7.85
2023-04-23T05:29:04.179Z,7.90
2023-04-23T05:30:09.551Z,9.07
2023-04-23T05:31:11.827Z,8.23
2023-04-23T05:32:14.191Z,8.43
2023-04-23T05:33:16.410Z,8.15
2023-04-23T05:34:18.370Z,8.30
2023-04-23T05:35:20.528Z,7.63
2023-04-23T05:36:22.553Z,8.07
2023-04-23T05:37:24.717Z,8.15
2023-04-23T05:38:29.456Z,8.05
2023-04-23T05:39:31.387Z,8.13
2023-04-23T05:40:33.945Z,7.65
2023-04-23T05:41:35.983Z,7.55
2023-04-23T05:42:38.599Z,7.85
2023-04-23T05:43:40.721Z,7.70
2023-04-23T05:44:43.051Z,7.80
2023-04-23T05:45:45.296Z,7.53
2023-04-23T05:46:47.277Z,7.95
2023-04-23T05:47:49.249Z,8.30
2023-04-23T05:48:51.355Z,8.43
2023-04-23T05:49:53.574Z,8.63
2023-04-23T05:50:55.794Z,8.45
2023-04-23T05:51:59.424Z,8.05
2023-04-23T05:53:01.482Z,8.25
2023-04-23T05:54:03.608Z,8.25
2023-04-23T05:55:08.128Z,8.40
2023-04-23T05:56:10.661Z,8.73
2023-04-23T05:57:12.851Z,9.13
2023-04-23T05:58:15.741Z,8.63
2023-04-23T05:59:17.773Z,8.38
2023-04-23T06:00:20.774Z,8.35
2023-04-23T06:01:23.685Z,8.35
2023-04-23T06:02:25.883Z,8.25
2023-04-23T06:03:28.183Z,8.07
2023-04-23T06:04:30.896Z,8.13
2023-04-23T06:05:33.277Z,7.73
2023-04-23T06:06:35.424Z,8.18
2023-04-23T06:07:37.606Z,7.90
2023-04-23T06:08:39.773Z,7.72
2023-04-23T06:09:41.809Z,8.02
2023-04-23T06:10:43.912Z,8.05
2023-04-23T06:11:46.192Z,7.97
2023-04-23T06:12:48.145Z,7.68
2023-04-23T06:13:50.703Z,8.05
2023-04-23T06:14:53.418Z,7.97
2023-04-23T06:15:55.540Z,7.93
2023-04-23T06:16:57.633Z,7.97
2023-04-23T06:17:59.686Z,8.00
2023-04-23T06:19:01.721Z,8.38
2023-04-23T06:20:05.301Z,7.90
2023-04-23T06:21:09.846Z,12.18
2023-04-23T06:22:11.986Z,7.78
2023-04-23T06:23:13.996Z,8.10
2023-04-23T06:24:16.078Z,7.47
2023-04-23T06:25:18.174Z,8.00
2023-04-23T06:26:20.817Z,8.57
2023-04-23T06:27:24.243Z,7.68
2023-04-23T06:28:28.393Z,7.53
2023-04-23T06:29:53.376Z,7.60
2023-04-23T06:30:55.488Z,7.70
2023-04-23T06:32:01.606Z,8.00
2023-04-23T06:33:03.777Z,7.85
2023-04-23T06:34:06.015Z,7.68
2023-04-23T06:35:11.141Z,7.97
2023-04-23T06:36:14.754Z,7.70
2023-04-23T06:37:19.182Z,8.13
2023-04-23T06:38:23.016Z,8.20
2023-04-23T06:39:25.145Z,8.05
2023-04-23T06:40:27.244Z,7.57
2023-04-23T06:41:29.401Z,8.18
2023-04-23T06:42:57.322Z,8.30
2023-04-23T06:44:21.532Z,8.20
2023-04-23T06:45:31.912Z,8.52
2023-04-23T06:46:34.053Z,8.52
2023-04-23T06:47:36.168Z,8.40
2023-04-23T06:48:38.110Z,8.20
2023-04-23T06:49:41.007Z,8.32
2023-04-23T06:50:43.061Z,8.82
2023-04-23T06:51:45.196Z,8.07
2023-04-23T06:52:47.244Z,8.57
2023-04-23T06:53:49.276Z,8.63
2023-04-23T06:54:51.942Z,8.35
2023-04-23T06:55:53.957Z,8.15
2023-04-23T06:56:57.466Z,8.77
2023-04-23T06:57:59.604Z,8.75
2023-04-23T06:59:02.014Z,8.30
2023-04-23T07:00:08.347Z,8.55
2023-04-23T07:01:14.158Z,8.68
2023-04-23T07:02:16.386Z,8.63
2023-04-23T07:03:19.283Z,9.23
2023-04-23T07:04:21.348Z,9.57
2023-04-23T07:05:23.596Z,9.18
2023-04-23T07:06:25.697Z,9.20
2023-04-23T07:07:27.770Z,8.98
2023-04-23T07:08:29.807Z,9.15
2023-04-23T07:09:31.768Z,9.40
2023-04-23T07:10:33.802Z,9.52
2023-04-23T07:11:37.093Z,9.50
2023-04-23T07:12:40.200Z,9.02
2023-04-23T07:13:42.686Z,9.38
2023-04-23T07:14:44.716Z,9.38
2023-04-23T07:15:46.873Z,10.00
2023-04-23T07:16:48.991Z,9.23
2023-04-23T07:17:51.020Z,9.07
2023-04-23T07:18:53.506Z,9.10
2023-04-23T07:19:55.498Z,9.33
2023-04-23T07:20:57.525Z,9.25
2023-04-23T07:21:59.723Z,9.60
2023-04-23T07:23:04.149Z,10.25
2023-04-23T07:24:09.003Z,10.20
2023-04-23T07:25:11.078Z,10.50
2023-04-23T07:26:13.177Z,9.90
2023-04-23T07:27:15.273Z,9.32
2023-04-23T07:28:17.253Z,9.30
2023-04-23T07:29:19.467Z,9.38
2023-04-23T07:30:22.813Z,9.70
2023-04-23T07:31:24.889Z,9.35
2023-04-23T07:32:28.365Z,9.85
2023-04-23T07:33:30.620Z,9.70
2023-04-23T07:34:32.753Z,10.10
2023-04-23T07:35:34.735Z,9.48
2023-04-23T07:36:37.106Z,9.77
2023-04-23T07:37:39.237Z,9.80
2023-04-23T07:38:41.396Z,10.25
2023-04-23T07:39:44.149Z,10.20
2023-04-23T07:40:47.425Z,9.77
2023-04-23T07:41:49.474Z,10.20
2023-04-23T07:42:52.242Z,9.77
2023-04-23T07:43:54.405Z,10.25
2023-04-23T07:44:56.422Z,10.82
2023-04-23T07:45:58.673Z,10.73
2023-04-23T07:47:00.805Z,10.77
2023-04-23T07:48:03.275Z,10.60
2023-04-23T07:49:05.349Z,11.07
2023-04-23T07:50:09.863Z,10.77
2023-04-23T07:51:12.431Z,10.70
2023-04-23T07:52:15.810Z,10.57
2023-04-23T07:53:17.837Z,11.20
2023-04-23T07:54:20.759Z,11.30
2023-04-23T07:55:22.851Z,11.38
2023-04-23T07:56:25.031Z,11.90
2023-04-23T07:57:27.098Z,11.73
2023-04-23T07:58:29.184Z,11.65
2023-04-23T07:59:31.537Z,11.05
2023-04-23T08:00:36.586Z,10.32
2023-04-23T08:01:38.703Z,10.43
2023-04-23T08:02:41.042Z,11.07
2023-04-23T08:03:43.657Z,11.00
2023-04-23T08:04:45.943Z,11.02
2023-04-23T08:05:48.286Z,10.95
2023-04-23T08:06:50.518Z,11.45
2023-04-23T08:07:52.584Z,11.00
2023-04-23T08:08:56.184Z,11.50
2023-04-23T08:10:03.037Z,10.80
2023-04-23T08:11:06.877Z,11.10
2023-04-23T08:12:08.837Z,10.80
2023-04-23T08:13:11.329Z,10.75
2023-04-23T08:14:13.387Z,11.18
2023-04-23T08:15:15.464Z,11.73
2023-04-23T08:16:19.592Z,11.63
2023-04-23T08:17:21.844Z,12.20
2023-04-23T08:18:23.827Z,11.40
2023-04-23T08:19:26.900Z,12.43
2023-04-23T08:20:28.912Z,11.13
2023-04-23T08:21:32.661Z,11.00
2023-04-23T08:22:34.910Z,11.80
2023-04-23T08:23:37.011Z,11.70
2023-04-23T08:24:39.164Z,11.43
2023-04-23T08:25:41.344Z,11.02
2023-04-23T08:26:43.358Z,11.82
2023-04-23T08:27:45.401Z,11.02
2023-04-23T08:28:47.401Z,11.05
2023-04-23T08:29:49.382Z,11.23
2023-04-23T08:30:51.415Z,11.93
2023-04-23T08:31:53.464Z,11.15
2023-04-23T08:32:55.633Z,10.90
2023-04-23T08:33:58.026Z,10.32
2023-04-23T08:35:00.212Z,10.80
2023-04-23T08:36:02.272Z,10.07
2023-04-23T08:37:05.000Z,9.65
2023-04-23T08:38:07.193Z,8.88
2023-04-23T08:39:09.573Z,10.45
2023-04-23T08:40:12.059Z,9.75
2023-04-23T08:41:15.457Z,9.90
2023-04-23T08:42:36.352Z,9.05
2023-04-23T08:43:52.596Z,8.13
2023-04-23T08:44:55.354Z,8.68
2023-04-23T08:46:02.449Z,8.75
2023-04-23T08:47:06.517Z,9.10
2023-04-23T08:48:10.569Z,9.10
2023-04-23T08:49:16.624Z,9.50
2023-04-23T08:50:23.310Z,9.48
2023-04-23T08:51:29.201Z,9.40
2023-04-23T08:52:35.352Z,11.18
2023-04-23T08:53:39.916Z,9.60
2023-04-23T08:54:45.791Z,9.57
2023-04-23T08:55:50.774Z,10.10
2023-04-23T08:56:56.248Z,9.75
2023-04-23T08:57:59.007Z,9.77
2023-04-23T08:59:03.471Z,10.05
2023-04-23T09:00:06.630Z,11.50
2023-04-23T09:01:09.374Z,9.10
2023-04-23T09:02:11.929Z,8.90
2023-04-23T09:03:15.416Z,8.43
2023-04-23T09:04:17.681Z,8.50
2023-04-23T09:05:19.696Z,8.97
2023-04-23T09:06:22.169Z,8.30
2023-04-23T09:07:24.441Z,6.70
2023-04-23T09:08:27.178Z,6.55
2023-04-23T09:09:31.083Z,6.82
2023-04-23T09:10:36.846Z,7.20
2023-04-23T09:11:39.331Z,6.35
2023-04-23T09:12:43.810Z,6.20
2023-04-23T09:13:46.096Z,5.70
2023-04-23T09:14:49.482Z,5.70
2023-04-23T09:15:51.461Z,5.40
2023-04-23T09:16:54.919Z,5.47
2023-04-23T09:17:57.464Z,5.43
2023-04-23T09:18:59.727Z,5.00
2023-04-23T09:20:02.980Z,5.30
2023-04-23T09:21:06.453Z,5.35
2023-04-23T09:22:09.224Z,5.22
2023-04-23T09:23:15.102Z,5.22
2023-04-23T09:24:18.023Z,5.35
2023-04-23T09:25:22.761Z,5.15
2023-04-23T09:26:24.970Z,5.80
2023-04-23T09:27:27.126Z,5.80
2023-04-23T09:28:38.519Z,5.40
2023-04-23T09:29:44.570Z,5.53
2023-04-23T09:30:49.173Z,5.57
2023-04-23T09:31:54.466Z,5.60
2023-04-23T09:32:56.490Z,5.20
2023-04-23T09:33:58.556Z,5.30
2023-04-23T09:35:04.195Z,5.18
2023-04-23T09:36:15.508Z,5.05
2023-04-23T09:37:19.196Z,5.00
2023-04-23T09:38:21.477Z,5.18
2023-04-23T09:39:24.343Z,5.28
2023-04-23T09:40:27.600Z,5.18
2023-04-23T09:41:31.227Z,5.93
2023-04-23T09:42:33.930Z,5.60
2023-04-23T09:43:35.943Z,5.80
2023-04-23T09:44:38.003Z,5.57
2023-04-23T09:45:50.470Z,5.50
2023-04-23T09:46:52.954Z,5.53
2023-04-23T09:47:57.173Z,5.80
2023-04-23T09:49:00.568Z,6.10
2023-04-23T09:50:02.745Z,5.40
2023-04-23T09:51:05.315Z,5.82
2023-04-23T09:52:07.501Z,5.32
2023-04-23T09:53:10.675Z,5.35
2023-04-23T09:54:16.696Z,5.65
2023-04-23T09:55:31.713Z,5.20
2023-04-23T09:56:33.978Z,4.72
2023-04-23T09:57:40.999Z,4.47
2023-04-23T09:58:45.886Z,5.13
2023-04-23T09:59:51.475Z,5.28
2023-04-23T10:01:08.045Z,5.07
2023-04-23T10:02:10.794Z,5.13
2023-04-23T10:03:13.164Z,4.97
2023-04-23T10:04:20.231Z,4.88
2023-04-23T10:05:25.992Z,4.97
2023-04-23T10:06:44.375Z,4.70
2023-04-23T10:07:55.276Z,4.75
2023-04-23T10:08:57.799Z,5.03
2023-04-23T10:09:59.910Z,4.50
2023-04-23T10:11:19.571Z,4.32
2023-04-23T10:13:28.537Z,4.90
2023-04-23T10:14:31.402Z,4.80
2023-04-23T10:15:34.871Z,4.60
2023-04-23T10:17:41.681Z,4.00
2023-04-23T10:18:44.103Z,4.43
2023-04-23T10:19:46.805Z,4.47
2023-04-23T10:20:51.975Z,4.30
2023-04-23T10:22:02.542Z,4.40
2023-04-23T10:23:24.097Z,4.50
2023-04-23T10:24:30.882Z,4.75
2023-04-23T10:25:33.651Z,4.68
2023-04-23T10:26:39.343Z,5.25
2023-04-23T10:27:51.892Z,4.78
2023-04-23T10:28:58.813Z,4.40
2023-04-23T10:30:06.265Z,4.50
2023-04-23T10:31:09.780Z,4.80
2023-04-23T10:32:12.789Z,4.70
2023-04-23T10:33:26.464Z,4.60
2023-04-23T10:34:32.881Z,4.63
2023-04-23T10:35:35.193Z,4.70
2023-04-23T10:36:38.609Z,4.85
2023-04-23T10:37:41.786Z,4.60
2023-04-23T10:38:56.798Z,5.07
2023-04-23T10:40:14.556Z,4.30
2023-04-23T10:41:22.091Z,4.90
2023-04-23T10:42:24.228Z,4.55
2023-04-23T10:43:26.408Z,4.67
2023-04-23T10:45:44.144Z,4.95
2023-04-23T10:46:57.919Z,4.60
2023-04-23T10:48:00.191Z,4.30
2023-04-23T10:49:14.783Z,4.57
2023-04-23T10:50:29.791Z,4.13
2023-04-23T10:52:43.674Z,4.60
2023-04-23T10:53:46.148Z,4.70
2023-04-23T10:54:50.716Z,4.80
2023-04-23T10:56:06.754Z,5.53
2023-04-23T10:57:11.056Z,4.80
2023-04-23T10:58:13.192Z,4.78
2023-04-23T10:59:35.212Z,4.63
2023-04-23T11:00:43.481Z,4.25
2023-04-23T11:01:48.862Z,4.80
2023-04-23T11:02:52.106Z,4.70
2023-04-23T11:03:54.564Z,4.75
2023-04-23T11:04:58.532Z,4.03
2023-04-23T11:06:05.389Z,4.33
2023-04-23T11:07:12.225Z,4.90
2023-04-23T11:08:19.188Z,4.65
2023-04-23T11:09:49.014Z,4.57
2023-04-23T11:11:01.801Z,4.95
2023-04-23T11:12:08.106Z,4.18
2023-04-23T11:13:30.204Z,4.50
2023-04-23T11:14:46.172Z,4.47
2023-04-23T11:15:48.197Z,4.10
2023-04-23T11:16:50.386Z,4.28
2023-04-23T11:17:52.640Z,4.73
2023-04-23T11:19:11.291Z,4.50
2023-04-23T11:20:21.209Z,3.90
2023-04-23T11:21:23.246Z,4.50
2023-04-23T11:22:34.938Z,4.45
2023-04-23T11:23:37.129Z,4.30
2023-04-23T11:24:47.131Z,4.40
2023-04-23T11:25:50.290Z,4.32
2023-04-23T11:26:55.747Z,3.95
2023-04-23T11:28:01.403Z,4.28
2023-04-23T11:29:05.961Z,3.90
2023-04-23T11:30:24.382Z,4.10
2023-04-23T11:31:27.032Z,4.30
2023-04-23T11:32:29.327Z,4.10
2023-04-23T11:33:31.628Z,4.55
2023-04-23T11:34:34.370Z,4.50
2023-04-23T11:35:40.702Z,4.40
2023-04-23T11:36:43.369Z,4.78
2023-04-23T11:37:46.479Z,4.70
2023-04-23T11:38:48.540Z,4.80
2023-04-23T11:39:51.682Z,4.80
2023-04-23T11:40:53.759Z,4.70
2023-04-23T11:41:57.134Z,4.75
2023-04-23T11:42:59.539Z,4.47
2023-04-23T11:44:01.526Z,4.40
2023-04-23T11:45:03.600Z,4.45
2023-04-23T11:46:06.331Z,4.50
2023-04-23T11:47:11.190Z,4.63
2023-04-23T11:48:13.309Z,4.60
2023-04-23T11:49:19.429Z,4.60
2023-04-23T11:50:23.080Z,4.80
2023-04-23T11:51:28.557Z,4.72
2023-04-23T11:52:30.597Z,4.82
2023-04-23T11:53:32.585Z,5.38
2023-04-23T11:54:34.913Z,5.10
2023-04-23T11:55:38.223Z,4.90
2023-04-23T11:56:41.132Z,4.93
2023-04-23T11:57:48.559Z,4.90
2023-04-23T11:59:03.795Z,5.00
2023-04-23T12:00:23.334Z,4.63
2023-04-23T12:01:25.390Z,4.90
2023-04-23T12:02:28.877Z,4.70
2023-04-23T12:03:31.228Z,4.90
2023-04-23T12:04:33.661Z,4.65
2023-04-23T12:05:41.142Z,4.72
2023-04-23T12:06:45.749Z,4.63
2023-04-23T12:07:54.772Z,4.97
2023-04-23T12:08:56.795Z,4.50
2023-04-23T12:10:00.445Z,5.00
2023-04-23T12:11:03.898Z,4.63
2023-04-23T12:12:06.289Z,4.70
2023-04-23T12:13:13.161Z,4.55
2023-04-23T12:14:15.494Z,4.90
2023-04-23T12:15:17.553Z,5.07
2023-04-23T12:16:37.534Z,4.85
2023-04-23T12:17:39.605Z,4.90
2023-04-23T12:18:45.398Z,5.22
2023-04-23T12:19:51.153Z,5.10
2023-04-23T12:20:53.264Z,4.95
2023-04-23T12:21:56.425Z,5.10
2023-04-23T12:23:04.671Z,5.20
2023-04-23T12:24:06.815Z,4.97
2023-04-23T12:25:09.720Z,5.22
2023-04-23T12:26:13.827Z,5.50
2023-04-23T12:27:20.385Z,5.32
2023-04-23T12:28:26.105Z,5.60
2023-04-23T12:29:30.593Z,5.70
2023-04-23T12:30:34.640Z,4.97
2023-04-23T12:31:39.455Z,5.30
2023-04-23T12:32:41.755Z,5.00
2023-04-23T12:33:44.264Z,4.87
2023-04-23T12:34:55.530Z,4.90
2023-04-23T12:35:58.121Z,5.28
2023-04-23T12:37:00.176Z,4.80
2023-04-23T12:38:04.483Z,4.80
2023-04-23T12:39:23.529Z,4.90
2023-04-23T12:40:25.671Z,4.90
2023-04-23T12:41:27.736Z,4.85
2023-04-23T12:42:29.795Z,5.20
2023-04-23T12:43:32.183Z,4.85
2023-04-23T12:44:35.770Z,4.57
2023-04-23T12:45:38.540Z,4.90
2023-04-23T12:46:40.807Z,4.57
2023-04-23T12:47:42.867Z,4.70
2023-04-23T12:48:44.930Z,5.20
2023-04-23T12:49:49.608Z,4.68
2023-04-23T12:50:51.736Z,4.78
2023-04-23T12:51:57.726Z,5.32
2023-04-23T12:53:00.156Z,5.07
2023-04-23T12:54:02.154Z,4.45
2023-04-23T12:55:05.248Z,4.43
2023-04-23T12:56:07.342Z,4.15
2023-04-23T12:57:12.800Z,4.68
2023-04-23T12:58:14.900Z,4.43
2023-04-23T12:59:16.972Z,4.88
2023-04-23T13:00:19.117Z,4.40
2023-04-23T13:01:21.492Z,4.30
2023-04-23T13:02:25.009Z,4.50
2023-04-23T13:03:27.978Z,4.70
2023-04-23T13:04:31.674Z,4.55
2023-04-23T13:05:33.714Z,5.00
2023-04-23T13:06:36.008Z,4.60
2023-04-23T13:07:38.285Z,4.70
2023-04-23T13:08:40.391Z,4.55
2023-04-23T13:09:42.759Z,4.50
2023-04-23T13:10:45.108Z,4.82
2023-04-23T13:11:49.741Z,5.43
2023-04-23T13:12:51.774Z,4.80
2023-04-23T13:13:53.840Z,5.00
2023-04-23T13:14:56.518Z,4.60
2023-04-23T13:15:58.898Z,4.87
2023-04-23T13:17:01.126Z,5.18
2023-04-23T13:18:03.299Z,5.05
2023-04-23T13:19:05.477Z,5.00
2023-04-23T13:20:09.087Z,4.68
2023-04-23T13:21:11.184Z,5.00
2023-04-23T13:22:13.347Z,4.60
2023-04-23T13:23:15.348Z,4.80
2023-04-23T13:24:17.390Z,4.65
2023-04-23T13:25:19.343Z,4.63
2023-04-23T13:26:21.495Z,5.20
2023-04-23T13:27:25.425Z,4.57
2023-04-23T13:28:27.410Z,4.53
2023-04-23T13:29:29.589Z,4.60
2023-04-23T13:30:31.559Z,4.40
2023-04-23T13:31:33.814Z,4.40
2023-04-23T13:32:35.952Z,4.68
2023-04-23T13:33:39.254Z,4.40
2023-04-23T13:34:41.280Z,4.72
2023-04-23T13:35:43.343Z,4.70
2023-04-23T13:36:45.394Z,4.97
2023-04-23T13:37:47.644Z,4.53
2023-04-23T13:38:49.777Z,4.80
2023-04-23T13:39:51.788Z,4.40
2023-04-23T13:40:54.008Z,5.00
2023-04-23T13:42:08.922Z,4.70
2023-04-23T13:43:11.943Z,4.57
2023-04-23T13:44:14.026Z,4.75
2023-04-23T13:45:16.292Z,5.10
2023-04-23T13:46:19.799Z,4.85
2023-04-23T13:47:22.085Z,4.70
2023-04-23T13:48:28.785Z,4.95
2023-04-23T13:49:30.928Z,4.93
2023-04-23T13:50:33.045Z,4.85
2023-04-23T13:51:36.056Z,5.00
2023-04-23T13:52:39.825Z,4.85
2023-04-23T13:53:45.289Z,4.90
2023-04-23T13:54:49.131Z,5.13
2023-04-23T13:55:51.358Z,4.97
2023-04-23T13:56:54.454Z,4.88
2023-04-23T13:57:58.173Z,5.10
2023-04-23T14:00:08.404Z,4.50
2023-04-23T14:01:11.916Z,4.75
2023-04-23T14:02:13.928Z,4.72
2023-04-23T14:03:16.184Z,4.50
2023-04-23T14:04:19.034Z,4.40
2023-04-23T14:05:21.270Z,4.45
2023-04-23T14:06:23.512Z,4.60
2023-04-23T14:07:25.549Z,4.75
2023-04-23T14:08:27.498Z,4.80
2023-04-23T14:09:30.150Z,4.85
2023-04-23T14:10:32.355Z,5.00
2023-04-23T14:11:34.930Z,4.72